sensor_id;sensor_type;location;lat;lon;timestamp;pressure;altitude;pressure_sealevel;temperature;humidity
15382;BME280;7789;51.364;12.358;2022-08-21T00:03:23;100322.31;;;20.34;100.00
15382;BME280;7789;51.364;12.358;2022-08-21T00:13:52;100314.28;;;20.28;100.00
15382;BME280;7789;51.364;12.358;2022-08-21T00:19:11;100318.97;;;20.26;100.00
15382;BME280;7789;51.364;12.358;2022-08-21T00:24:41;100321.78;;;20.24;100.00
15382;BME280;7789;51.364;12.358;2022-08-21T00:29:54;100320.78;;;20.25;100.00
15382;BME280;7789;51.364;12.358;2022-08-21T00:35:07;100316.94;;;20.28;100.00
15382;BME280;7789;51.364;12.358;2022-08-21T00:40:22;100316.47;;;20.24;100.00
15382;BME280;7789;51.364;12.358;2022-08-21T00:45:32;100313.38;;;20.21;100.00
15382;BME280;7789;51.364;12.358;2022-08-21T00:50:50;100310.28;;;20.17;100.00
15382;BME280;7789;51.364;12.358;2022-08-21T00:56:06;100314.31;;;20.13;100.00
15382;BME280;7789;51.364;12.358;2022-08-21T01:01:13;100315.97;;;20.14;100.00
15382;BME280;7789;51.364;12.358;2022-08-21T01:06:38;100316.59;;;20.16;100.00
15382;BME280;7789;51.364;12.358;2022-08-21T01:11:45;100318.59;;;20.14;100.00
15382;BME280;7789;51.364;12.358;2022-08-21T01:16:58;100315.16;;;20.14;100.00
15382;BME280;7789;51.364;12.358;2022-08-21T01:22:26;100319.06;;;20.18;100.00
15382;BME280;7789;51.364;12.358;2022-08-21T01:27:59;100321.34;;;20.21;100.00
15382;BME280;7789;51.364;12.358;2022-08-21T01:33:29;100329.31;;;20.21;100.00
15382;BME280;7789;51.364;12.358;2022-08-21T01:38:39;100326.47;;;20.22;100.00
15382;BME280;7789;51.364;12.358;2022-08-21T01:43:53;100319.91;;;20.18;100.00
15382;BME280;7789;51.364;12.358;2022-08-21T01:48:59;100323.56;;;20.17;100.00
15382;BME280;7789;51.364;12.358;2022-08-21T01:54:08;100310.66;;;20.14;100.00
15382;BME280;7789;51.364;12.358;2022-08-21T01:59:17;100301.34;;;20.04;100.00
15382;BME280;7789;51.364;12.358;2022-08-21T02:04:33;100298.56;;;19.97;100.00
15382;BME280;7789;51.364;12.358;2022-08-21T02:09:46;100311.41;;;19.94;100.00
15382;BME280;7789;51.364;12.358;2022-08-21T02:14:52;100308.47;;;19.89;100.00
15382;BME280;7789;51.364;12.358;2022-08-21T02:20:10;100308.84;;;19.86;100.00
15382;BME280;7789;51.364;12.358;2022-08-21T02:25:35;100301.09;;;19.84;100.00
15382;BME280;7789;51.364;12.358;2022-08-21T02:30:44;100289.19;;;19.80;100.00
15382;BME280;7789;51.364;12.358;2022-08-21T02:36:04;100295.25;;;19.74;100.00
15382;BME280;7789;51.364;12.358;2022-08-21T02:41:23;100292.13;;;19.71;100.00
15382;BME280;7789;51.364;12.358;2022-08-21T02:46:34;100301.66;;;19.65;100.00
15382;BME280;7789;51.364;12.358;2022-08-21T02:51:51;100301.22;;;19.62;100.00
15382;BME280;7789;51.364;12.358;2022-08-21T02:57:00;100294.44;;;19.59;100.00
15382;BME280;7789;51.364;12.358;2022-08-21T03:02:17;100305.25;;;19.58;100.00
15382;BME280;7789;51.364;12.358;2022-08-21T03:07:40;100293.81;;;19.57;100.00
15382;BME280;7789;51.364;12.358;2022-08-21T03:12:58;100293.72;;;19.51;100.00
15382;BME280;7789;51.364;12.358;2022-08-21T03:18:15;100295.47;;;19.44;100.00
15382;BME280;7789;51.364;12.358;2022-08-21T03:23:21;100307.44;;;19.40;100.00
15382;BME280;7789;51.364;12.358;2022-08-21T03:28:35;100300.94;;;19.42;100.00
15382;BME280;7789;51.364;12.358;2022-08-21T03:33:41;100302.78;;;19.42;100.00
15382;BME280;7789;51.364;12.358;2022-08-21T03:38:49;100300.31;;;19.40;100.00
15382;BME280;7789;51.364;12.358;2022-08-21T03:44:01;100304.59;;;19.41;100.00
15382;BME280;7789;51.364;12.358;2022-08-21T03:49:11;100307.44;;;19.40;100.00
15382;BME280;7789;51.364;12.358;2022-08-21T03:54:19;100312.47;;;19.35;100.00
15382;BME280;7789;51.364;12.358;2022-08-21T03:59:28;100320.63;;;19.33;100.00
15382;BME280;7789;51.364;12.358;2022-08-21T04:04:41;100324.63;;;19.29;100.00
15382;BME280;7789;51.364;12.358;2022-08-21T04:10:08;100326.53;;;19.21;100.00
15382;BME280;7789;51.364;12.358;2022-08-21T04:15:19;100321.59;;;19.18;100.00
15382;BME280;7789;51.364;12.358;2022-08-21T04:20:26;100320.94;;;19.16;100.00
15382;BME280;7789;51.364;12.358;2022-08-21T04:25:32;100333.38;;;19.15;100.00
15382;BME280;7789;51.364;12.358;2022-08-21T04:30:43;100337.72;;;19.16;100.00
15382;BME280;7789;51.364;12.358;2022-08-21T04:35:59;100330.41;;;19.18;100.00
15382;BME280;7789;51.364;12.358;2022-08-21T04:41:06;100343.44;;;19.20;100.00
15382;BME280;7789;51.364;12.358;2022-08-21T04:46:16;100343.28;;;19.21;100.00
15382;BME280;7789;51.364;12.358;2022-08-21T04:51:25;100344.94;;;19.22;100.00
15382;BME280;7789;51.364;12.358;2022-08-21T04:56:38;100351.34;;;19.28;100.00
15382;BME280;7789;51.364;12.358;2022-08-21T05:01:47;100354.34;;;19.25;100.00
15382;BME280;7789;51.364;12.358;2022-08-21T05:06:52;100351.69;;;19.25;100.00
15382;BME280;7789;51.364;12.358;2022-08-21T05:11:58;100366.41;;;19.27;100.00
15382;BME280;7789;51.364;12.358;2022-08-21T05:17:06;100369.69;;;19.29;100.00
15382;BME280;7789;51.364;12.358;2022-08-21T05:22:20;100370.16;;;19.33;100.00
15382;BME280;7789;51.364;12.358;2022-08-21T05:27:28;100373.09;;;19.38;100.00
15382;BME280;7789;51.364;12.358;2022-08-21T05:32:36;100368.91;;;19.43;100.00
15382;BME280;7789;51.364;12.358;2022-08-21T05:37:58;100363.22;;;19.46;100.00
15382;BME280;7789;51.364;12.358;2022-08-21T05:43:14;100359.84;;;19.52;100.00
15382;BME280;7789;51.364;12.358;2022-08-21T05:48:24;100373.84;;;19.61;100.00
15382;BME280;7789;51.364;12.358;2022-08-21T05:53:32;100370.94;;;19.70;100.00
15382;BME280;7789;51.364;12.358;2022-08-21T05:58:36;100368.00;;;19.80;100.00
15382;BME280;7789;51.364;12.358;2022-08-21T06:03:44;100365.94;;;19.96;100.00
15382;BME280;7789;51.364;12.358;2022-08-21T06:08:51;100365.28;;;20.23;100.00
15382;BME280;7789;51.364;12.358;2022-08-21T06:13:58;100375.88;;;20.59;100.00
15382;BME280;7789;51.364;12.358;2022-08-21T06:19:06;100383.13;;;20.85;100.00
15382;BME280;7789;51.364;12.358;2022-08-21T06:24:12;100384.28;;;20.83;100.00
15382;BME280;7789;51.364;12.358;2022-08-21T06:29:18;100393.66;;;20.79;100.00
15382;BME280;7789;51.364;12.358;2022-08-21T06:34:26;100391.47;;;20.82;100.00
15382;BME280;7789;51.364;12.358;2022-08-21T06:39:39;100389.91;;;20.88;100.00
15382;BME280;7789;51.364;12.358;2022-08-21T06:44:54;100403.28;;;20.94;100.00
15382;BME280;7789;51.364;12.358;2022-08-21T06:50:27;100399.22;;;20.98;100.00
15382;BME280;7789;51.364;12.358;2022-08-21T06:55:32;100399.78;;;20.94;100.00
15382;BME280;7789;51.364;12.358;2022-08-21T07:00:39;100403.47;;;20.93;100.00
15382;BME280;7789;51.364;12.358;2022-08-21T07:05:51;100390.63;;;20.96;100.00
15382;BME280;7789;51.364;12.358;2022-08-21T07:10:58;100388.59;;;20.98;100.00
15382;BME280;7789;51.364;12.358;2022-08-21T07:16:08;100397.72;;;21.17;100.00
15382;BME280;7789;51.364;12.358;2022-08-21T07:21:15;100396.97;;;21.78;100.00
15382;BME280;7789;51.364;12.358;2022-08-21T07:26:31;100392.59;;;22.58;97.46
15382;BME280;7789;51.364;12.358;2022-08-21T07:31:38;100393.47;;;22.84;95.76
15382;BME280;7789;51.364;12.358;2022-08-21T07:36:44;100396.34;;;22.95;93.77
15382;BME280;7789;51.364;12.358;2022-08-21T07:41:50;100397.16;;;22.83;91.49
15382;BME280;7789;51.364;12.358;2022-08-21T07:46:59;100394.69;;;22.81;90.20
15382;BME280;7789;51.364;12.358;2022-08-21T07:52:24;100387.91;;;22.79;89.79
15382;BME280;7789;51.364;12.358;2022-08-21T07:57:32;100387.91;;;22.79;89.08
15382;BME280;7789;51.364;12.358;2022-08-21T08:02:39;100373.34;;;22.81;87.81
15382;BME280;7789;51.364;12.358;2022-08-21T08:07:50;100375.22;;;22.81;87.88
15382;BME280;7789;51.364;12.358;2022-08-21T08:13:01;100380.13;;;22.71;85.83
15382;BME280;7789;51.364;12.358;2022-08-21T08:18:17;100383.00;;;22.76;87.69
15382;BME280;7789;51.364;12.358;2022-08-21T08:23:29;100380.75;;;22.92;87.59
15382;BME280;7789;51.364;12.358;2022-08-21T08:28:39;100387.94;;;22.98;83.98
15382;BME280;7789;51.364;12.358;2022-08-21T08:33:46;100387.34;;;23.22;80.00
15382;BME280;7789;51.364;12.358;2022-08-21T08:38:56;100384.84;;;23.47;81.91
15382;BME280;7789;51.364;12.358;2022-08-21T08:44:07;100379.28;;;23.68;77.61
15382;BME280;7789;51.364;12.358;2022-08-21T08:49:18;100375.97;;;23.79;71.86
15382;BME280;7789;51.364;12.358;2022-08-21T08:54:32;100382.75;;;23.88;72.22
15382;BME280;7789;51.364;12.358;2022-08-21T08:59:44;100376.38;;;23.95;70.75
15382;BME280;7789;51.364;12.358;2022-08-21T09:04:56;100379.78;;;24.15;68.46
15382;BME280;7789;51.364;12.358;2022-08-21T09:10:13;100376.75;;;24.43;69.67
15382;BME280;7789;51.364;12.358;2022-08-21T09:15:29;100378.75;;;24.60;64.87
15382;BME280;7789;51.364;12.358;2022-08-21T09:20:59;100377.09;;;24.59;62.27
15382;BME280;7789;51.364;12.358;2022-08-21T09:26:23;100373.22;;;24.55;65.07
15382;BME280;7789;51.364;12.358;2022-08-21T09:31:30;100376.75;;;24.80;64.93
15382;BME280;7789;51.364;12.358;2022-08-21T09:36:43;100368.91;;;24.85;61.21
15382;BME280;7789;51.364;12.358;2022-08-21T09:42:00;100363.75;;;25.08;60.65
15382;BME280;7789;51.364;12.358;2022-08-21T09:47:12;100368.09;;;25.33;60.25
15382;BME280;7789;51.364;12.358;2022-08-21T09:52:23;100367.75;;;25.48;58.61
15382;BME280;7789;51.364;12.358;2022-08-21T09:57:31;100379.75;;;25.63;59.93
15382;BME280;7789;51.364;12.358;2022-08-21T10:02:53;100371.78;;;25.57;59.46
15382;BME280;7789;51.364;12.358;2022-08-21T10:08:00;100368.34;;;25.50;57.83
15382;BME280;7789;51.364;12.358;2022-08-21T10:13:13;100375.88;;;25.59;55.80
15382;BME280;7789;51.364;12.358;2022-08-21T10:18:24;100372.38;;;25.59;54.50
15382;BME280;7789;51.364;12.358;2022-08-21T10:23:50;100367.59;;;25.79;55.91
15382;BME280;7789;51.364;12.358;2022-08-21T10:29:15;100369.63;;;25.83;55.57
15382;BME280;7789;51.364;12.358;2022-08-21T10:34:34;100365.41;;;25.94;54.88
15382;BME280;7789;51.364;12.358;2022-08-21T10:39:54;100363.63;;;26.06;54.42
15382;BME280;7789;51.364;12.358;2022-08-21T10:45:29;100360.91;;;26.24;57.00
15382;BME280;7789;51.364;12.358;2022-08-21T10:50:43;100355.53;;;26.24;55.41
15382;BME280;7789;51.364;12.358;2022-08-21T10:55:59;100351.16;;;26.29;52.51
15382;BME280;7789;51.364;12.358;2022-08-21T11:01:29;100345.81;;;26.41;52.97
15382;BME280;7789;51.364;12.358;2022-08-21T11:06:48;100353.94;;;26.52;50.33
15382;BME280;7789;51.364;12.358;2022-08-21T11:12:00;100342.66;;;26.62;49.97
15382;BME280;7789;51.364;12.358;2022-08-21T11:17:20;100344.16;;;26.58;49.67
15382;BME280;7789;51.364;12.358;2022-08-21T11:22:46;100337.91;;;26.75;50.79
15382;BME280;7789;51.364;12.358;2022-08-21T11:28:01;100335.00;;;26.88;51.76
15382;BME280;7789;51.364;12.358;2022-08-21T11:33:36;100331.03;;;26.79;48.72
15382;BME280;7789;51.364;12.358;2022-08-21T11:38:55;100331.97;;;26.84;50.02
15382;BME280;7789;51.364;12.358;2022-08-21T11:44:17;100326.94;;;26.76;48.58
15382;BME280;7789;51.364;12.358;2022-08-21T11:49:45;100316.78;;;26.78;47.80
15382;BME280;7789;51.364;12.358;2022-08-21T11:55:05;100309.19;;;26.75;47.30
15382;BME280;7789;51.364;12.358;2022-08-21T12:00:17;100311.66;;;26.66;48.01
15382;BME280;7789;51.364;12.358;2022-08-21T12:05:33;100310.22;;;26.52;46.90
15382;BME280;7789;51.364;12.358;2022-08-21T12:11:01;100312.59;;;26.42;49.64
15382;BME280;7789;51.364;12.358;2022-08-21T12:16:11;100312.69;;;26.35;47.97
15382;BME280;7789;51.364;12.358;2022-08-21T12:21:24;100308.84;;;26.43;47.59
15382;BME280;7789;51.364;12.358;2022-08-21T12:26:36;100304.88;;;26.34;47.86
15382;BME280;7789;51.364;12.358;2022-08-21T12:31:58;100304.38;;;26.25;50.95
15382;BME280;7789;51.364;12.358;2022-08-21T12:37:15;100307.03;;;26.14;49.75
15382;BME280;7789;51.364;12.358;2022-08-21T12:42:39;100307.75;;;26.21;48.46
15382;BME280;7789;51.364;12.358;2022-08-21T12:48:04;100297.56;;;26.11;48.27
15382;BME280;7789;51.364;12.358;2022-08-21T12:53:24;100292.34;;;26.16;49.37
15382;BME280;7789;51.364;12.358;2022-08-21T12:58:45;100293.09;;;26.35;49.53
15382;BME280;7789;51.364;12.358;2022-08-21T13:04:10;100289.75;;;26.39;48.92
15382;BME280;7789;51.364;12.358;2022-08-21T13:09:24;100279.59;;;26.41;49.86
15382;BME280;7789;51.364;12.358;2022-08-21T13:14:35;100287.00;;;26.28;49.21
15382;BME280;7789;51.364;12.358;2022-08-21T13:19:56;100282.22;;;26.30;49.76
15382;BME280;7789;51.364;12.358;2022-08-21T13:25:09;100277.19;;;26.22;49.03
15382;BME280;7789;51.364;12.358;2022-08-21T13:30:27;100275.94;;;26.24;49.04
15382;BME280;7789;51.364;12.358;2022-08-21T13:35:47;100275.22;;;26.29;51.04
15382;BME280;7789;51.364;12.358;2022-08-21T13:41:06;100274.31;;;26.23;47.94
15382;BME280;7789;51.364;12.358;2022-08-21T13:46:26;100276.50;;;26.15;50.25
15382;BME280;7789;51.364;12.358;2022-08-21T13:51:47;100271.13;;;26.15;50.46
15382;BME280;7789;51.364;12.358;2022-08-21T13:56:57;100271.56;;;26.12;49.91
15382;BME280;7789;51.364;12.358;2022-08-21T14:02:12;100272.25;;;26.07;50.34
15382;BME280;7789;51.364;12.358;2022-08-21T14:07:29;100270.81;;;25.93;48.91
15382;BME280;7789;51.364;12.358;2022-08-21T14:12:46;100274.63;;;25.86;49.23
15382;BME280;7789;51.364;12.358;2022-08-21T14:17:53;100276.25;;;25.87;48.30
15382;BME280;7789;51.364;12.358;2022-08-21T14:23:01;100266.56;;;25.86;49.96
15382;BME280;7789;51.364;12.358;2022-08-21T14:28:26;100263.72;;;25.81;49.75
15382;BME280;7789;51.364;12.358;2022-08-21T14:33:40;100250.03;;;25.71;48.95
15382;BME280;7789;51.364;12.358;2022-08-21T14:38:48;100248.88;;;25.67;49.89
15382;BME280;7789;51.364;12.358;2022-08-21T14:44:17;100252.88;;;25.58;48.47
15382;BME280;7789;51.364;12.358;2022-08-21T14:49:26;100254.97;;;25.56;50.60
15382;BME280;7789;51.364;12.358;2022-08-21T14:54:32;100241.19;;;25.52;49.31
15382;BME280;7789;51.364;12.358;2022-08-21T14:59:46;100247.75;;;25.56;51.22
15382;BME280;7789;51.364;12.358;2022-08-21T15:05:01;100240.59;;;25.50;50.53
15382;BME280;7789;51.364;12.358;2022-08-21T15:10:07;100239.44;;;25.46;49.35
15382;BME280;7789;51.364;12.358;2022-08-21T15:15:25;100237.00;;;25.45;48.52
15382;BME280;7789;51.364;12.358;2022-08-21T15:20:32;100227.16;;;25.39;48.51
15382;BME280;7789;51.364;12.358;2022-08-21T15:25:48;100223.28;;;25.35;48.58
15382;BME280;7789;51.364;12.358;2022-08-21T15:30:56;100214.22;;;25.36;48.80
15382;BME280;7789;51.364;12.358;2022-08-21T15:36:07;100217.94;;;25.35;51.22
15382;BME280;7789;51.364;12.358;2022-08-21T15:41:17;100227.22;;;25.32;48.98
15382;BME280;7789;51.364;12.358;2022-08-21T15:46:25;100224.34;;;25.34;48.96
15382;BME280;7789;51.364;12.358;2022-08-21T15:51:32;100219.44;;;25.31;49.27
15382;BME280;7789;51.364;12.358;2022-08-21T15:56:49;100223.38;;;25.28;49.89
15382;BME280;7789;51.364;12.358;2022-08-21T16:02:01;100225.84;;;25.30;49.70
15382;BME280;7789;51.364;12.358;2022-08-21T16:07:11;100221.94;;;25.26;49.56
15382;BME280;7789;51.364;12.358;2022-08-21T16:12:23;100210.06;;;25.22;48.75
15382;BME280;7789;51.364;12.358;2022-08-21T16:17:35;100207.63;;;25.20;49.87
15382;BME280;7789;51.364;12.358;2022-08-21T16:22:47;100212.41;;;25.12;51.13
15382;BME280;7789;51.364;12.358;2022-08-21T16:27:58;100213.28;;;25.06;49.71
15382;BME280;7789;51.364;12.358;2022-08-21T16:33:21;100206.91;;;25.07;49.02
15382;BME280;7789;51.364;12.358;2022-08-21T16:38:39;100210.41;;;25.07;51.20
15382;BME280;7789;51.364;12.358;2022-08-21T16:43:48;100204.91;;;25.02;50.08
15382;BME280;7789;51.364;12.358;2022-08-21T16:48:59;100206.59;;;24.97;52.15
15382;BME280;7789;51.364;12.358;2022-08-21T16:54:18;100205.63;;;24.91;50.08
15382;BME280;7789;51.364;12.358;2022-08-21T16:59:27;100202.13;;;24.91;49.65
15382;BME280;7789;51.364;12.358;2022-08-21T17:04:54;100194.09;;;24.91;48.88
15382;BME280;7789;51.364;12.358;2022-08-21T17:10:17;100197.22;;;24.88;49.30
15382;BME280;7789;51.364;12.358;2022-08-21T17:15:38;100205.09;;;24.83;49.20
15382;BME280;7789;51.364;12.358;2022-08-21T17:20:49;100207.38;;;24.79;49.58
15382;BME280;7789;51.364;12.358;2022-08-21T17:25:57;100206.00;;;24.77;49.60
15382;BME280;7789;51.364;12.358;2022-08-21T17:31:08;100204.56;;;24.74;50.37
15382;BME280;7789;51.364;12.358;2022-08-21T17:36:16;100206.06;;;24.71;50.15
15382;BME280;7789;51.364;12.358;2022-08-21T17:41:20;100212.13;;;24.60;53.64
15382;BME280;7789;51.364;12.358;2022-08-21T17:46:31;100219.75;;;24.50;51.27
15382;BME280;7789;51.364;12.358;2022-08-21T17:51:41;100209.75;;;24.45;51.56
15382;BME280;7789;51.364;12.358;2022-08-21T17:56:46;100213.28;;;24.39;51.11
15382;BME280;7789;51.364;12.358;2022-08-21T18:01:55;100214.78;;;24.29;52.68
15382;BME280;7789;51.364;12.358;2022-08-21T18:07:27;100219.59;;;24.20;52.02
15382;BME280;7789;51.364;12.358;2022-08-21T18:12:39;100220.06;;;24.11;52.25
15382;BME280;7789;51.364;12.358;2022-08-21T18:18:05;100229.16;;;24.03;52.22
15382;BME280;7789;51.364;12.358;2022-08-21T18:23:16;100225.97;;;23.88;55.44
15382;BME280;7789;51.364;12.358;2022-08-21T18:28:43;100233.59;;;23.78;54.73
15382;BME280;7789;51.364;12.358;2022-08-21T18:33:54;100221.69;;;23.74;54.13
15382;BME280;7789;51.364;12.358;2022-08-21T18:39:06;100234.88;;;23.69;54.17
15382;BME280;7789;51.364;12.358;2022-08-21T18:44:36;100236.16;;;23.60;54.76
15382;BME280;7789;51.364;12.358;2022-08-21T18:49:43;100243.34;;;23.53;54.63
15382;BME280;7789;51.364;12.358;2022-08-21T18:55:09;100250.59;;;23.46;55.39
15382;BME280;7789;51.364;12.358;2022-08-21T19:00:22;100248.34;;;23.37;55.66
15382;BME280;7789;51.364;12.358;2022-08-21T19:05:32;100245.31;;;23.27;55.93
15382;BME280;7789;51.364;12.358;2022-08-21T19:10:53;100250.66;;;23.20;56.01
15382;BME280;7789;51.364;12.358;2022-08-21T19:16:03;100257.41;;;23.10;56.78
15382;BME280;7789;51.364;12.358;2022-08-21T19:21:18;100246.16;;;23.01;56.94
15382;BME280;7789;51.364;12.358;2022-08-21T19:26:32;100258.69;;;22.94;56.83
15382;BME280;7789;51.364;12.358;2022-08-21T19:31:40;100258.88;;;22.86;58.13
15382;BME280;7789;51.364;12.358;2022-08-21T19:36:52;100256.63;;;22.77;58.04
15382;BME280;7789;51.364;12.358;2022-08-21T19:42:18;100264.03;;;22.68;58.41
15382;BME280;7789;51.364;12.358;2022-08-21T19:47:33;100261.59;;;22.61;59.60
15382;BME280;7789;51.364;12.358;2022-08-21T19:52:57;100263.03;;;22.50;59.83
15382;BME280;7789;51.364;12.358;2022-08-21T19:58:05;100265.44;;;22.45;60.63
15382;BME280;7789;51.364;12.358;2022-08-21T20:03:26;100266.66;;;22.36;60.54
15382;BME280;7789;51.364;12.358;2022-08-21T20:08:46;100266.66;;;22.30;61.30
15382;BME280;7789;51.364;12.358;2022-08-21T20:13:59;100266.22;;;22.20;62.28
15382;BME280;7789;51.364;12.358;2022-08-21T20:19:14;100262.53;;;22.14;62.57
15382;BME280;7789;51.364;12.358;2022-08-21T20:24:27;100263.72;;;22.05;62.19
15382;BME280;7789;51.364;12.358;2022-08-21T20:29:44;100278.66;;;22.00;62.81
15382;BME280;7789;51.364;12.358;2022-08-21T20:34:54;100274.56;;;21.91;63.06
15382;BME280;7789;51.364;12.358;2022-08-21T20:40:00;100284.78;;;21.87;63.33
15382;BME280;7789;51.364;12.358;2022-08-21T20:45:17;100283.28;;;21.78;64.51
15382;BME280;7789;51.364;12.358;2022-08-21T20:50:25;100286.16;;;21.70;64.70
15382;BME280;7789;51.364;12.358;2022-08-21T20:55:36;100280.38;;;21.67;64.67
15382;BME280;7789;51.364;12.358;2022-08-21T21:00:48;100275.00;;;21.54;65.06
15382;BME280;7789;51.364;12.358;2022-08-21T21:06:00;100272.47;;;21.46;65.35
15382;BME280;7789;51.364;12.358;2022-08-21T21:11:16;100276.75;;;21.40;65.79
15382;BME280;7789;51.364;12.358;2022-08-21T21:16:27;100270.19;;;21.36;66.52
15382;BME280;7789;51.364;12.358;2022-08-21T21:21:37;100277.94;;;21.31;66.78
15382;BME280;7789;51.364;12.358;2022-08-21T21:27:01;100280.56;;;21.25;66.81
15382;BME280;7789;51.364;12.358;2022-08-21T21:37:47;100293.38;;;21.15;66.60
15382;BME280;7789;51.364;12.358;2022-08-21T21:43:02;100286.19;;;21.09;66.87
15382;BME280;7789;51.364;12.358;2022-08-21T21:48:14;100291.28;;;21.04;66.85
15382;BME280;7789;51.364;12.358;2022-08-21T21:53:48;100295.72;;;20.97;66.94
15382;BME280;7789;51.364;12.358;2022-08-21T21:59:23;100297.91;;;20.93;67.30
15382;BME280;7789;51.364;12.358;2022-08-21T22:04:54;100289.25;;;20.85;67.62
15382;BME280;7789;51.364;12.358;2022-08-21T22:10:09;100303.53;;;20.77;68.09
15382;BME280;7789;51.364;12.358;2022-08-21T22:15:31;100302.63;;;20.70;68.43
15382;BME280;7789;51.364;12.358;2022-08-21T22:20:38;100301.75;;;20.64;69.52
15382;BME280;7789;51.364;12.358;2022-08-21T22:25:48;100296.38;;;20.57;70.63
15382;BME280;7789;51.364;12.358;2022-08-21T22:30:55;100293.03;;;20.49;71.88
15382;BME280;7789;51.364;12.358;2022-08-21T22:35:59;100297.81;;;20.39;72.63
15382;BME280;7789;51.364;12.358;2022-08-21T22:41:22;100298.78;;;20.31;73.75
15382;BME280;7789;51.364;12.358;2022-08-21T22:46:31;100303.38;;;20.23;74.04
15382;BME280;7789;51.364;12.358;2022-08-21T22:51:39;100309.22;;;20.12;74.88
15382;BME280;7789;51.364;12.358;2022-08-21T22:56:46;100307.28;;;20.06;75.85
15382;BME280;7789;51.364;12.358;2022-08-21T23:02:05;100303.72;;;19.99;77.00
15382;BME280;7789;51.364;12.358;2022-08-21T23:07:29;100308.13;;;19.92;77.74
15382;BME280;7789;51.364;12.358;2022-08-21T23:12:37;100304.94;;;19.82;78.51
15382;BME280;7789;51.364;12.358;2022-08-21T23:17:55;100305.88;;;19.74;78.34
15382;BME280;7789;51.364;12.358;2022-08-21T23:23:06;100308.44;;;19.68;79.44
15382;BME280;7789;51.364;12.358;2022-08-21T23:28:26;100301.22;;;19.62;80.15
15382;BME280;7789;51.364;12.358;2022-08-21T23:33:46;100307.44;;;19.54;81.32
15382;BME280;7789;51.364;12.358;2022-08-21T23:39:05;100307.53;;;19.46;81.68
15382;BME280;7789;51.364;12.358;2022-08-21T23:44:30;100305.63;;;19.40;82.04
15382;BME280;7789;51.364;12.358;2022-08-21T23:49:47;100311.03;;;19.32;82.27
15382;BME280;7789;51.364;12.358;2022-08-21T23:55:23;100314.00;;;19.29;83.45
